Waterville, Canada
Current Conditions -  °F | °C
As of 6:00 AM on Saturday 22 Nov 2014 (Local Time) from CYSC Reporting Station
Overcast Overcast  
Wind Chill: 10°   Ceiling: 8500
Heat Index: 19°   Visibility: 9mi
Dew Point: 12°   Wind: 7mph
Humidity: 74%   Direction: 210°SSW
Pressure: 30.19"   Gusts: NA
Location:  45.28°N, 71.88°W
Report Text: CYSC 221100Z AUTO 21006KT 9SM FEW035 OVC085 M07/M11 A3019 RMK SLP238
Loading
Personal Weather Stations






























Interactive Weather Map New forecast layout! Learn more

10-Day Weather Forecast

Advertisements
Track Severe Weather on mobile